Caprock, New Mexico
Current Conditions -  °F | °C
As of 4:51 AM on Thursday 27 Nov 2014 (Local Time) from KROW Reporting Station
Clear Clear  
Wind Chill: 33°   Ceiling: Unl
Heat Index: 33°   Visibility: 10mi
Dew Point: 24°   Wind: 0mph
Humidity: 70%   Direction: NA
Pressure: 30.42"   Gusts: NA
Location:  33.39°N, 103.71°W
Report Text: KROW 271151Z AUTO 00000KT 10SM CLR 01/M04 A3042 RMK AO2 SLP284 T00061044 10067 21017 51008
Loading
Personal Weather Stations






























Interactive Weather Map New forecast layout! Learn more

10-Day Weather Forecast

Advertisements
Track Severe Weather on mobile